createdAt,value
2019-04-22T00:00:16.629Z,1004.55
2019-04-22T00:00:57.633Z,1004.58
2019-04-22T00:01:38.188Z,1004.59
2019-04-22T00:02:17.418Z,1004.6
2019-04-22T00:03:02.729Z,1004.58
2019-04-22T00:03:47.354Z,1004.56
2019-04-22T00:04:32.068Z,1004.56
2019-04-22T00:05:07.093Z,1004.54
2019-04-22T00:05:59.821Z,1004.56
2019-04-22T00:06:43.884Z,1004.52
2019-04-22T00:07:21.976Z,1004.56
2019-04-22T00:08:08.378Z,1004.56
2019-04-22T00:08:42.704Z,1004.56
2019-04-22T00:09:23.702Z,1004.55
2019-04-22T00:10:04.418Z,1004.55
2019-04-22T00:10:46.525Z,1004.54
2019-04-22T00:11:28.646Z,1004.54
2019-04-22T00:12:05.612Z,1004.55
2019-04-22T00:12:59.641Z,1004.54
2019-04-22T00:13:31.787Z,1004.5
2019-04-22T00:14:05.040Z,1004.53
2019-04-22T00:14:46.159Z,1004.53
2019-04-22T00:15:25.723Z,1004.49
2019-04-22T00:16:04.077Z,1004.54
2019-04-22T00:16:51.350Z,1004.49
2019-04-22T00:17:38.134Z,1004.48
2019-04-22T00:18:13.032Z,1004.46
2019-04-22T00:19:07.675Z,1004.49
2019-04-22T00:19:35.616Z,1004.45
2019-04-22T00:20:14.144Z,1004.45
2019-04-22T00:20:57.814Z,1004.44
2019-04-22T00:21:38.273Z,1004.44
2019-04-22T00:22:14.943Z,1004.43
2019-04-22T00:22:50.365Z,1004.46
2019-04-22T00:23:30.515Z,1004.43
2019-04-22T00:24:16.822Z,1004.46
2019-04-22T00:24:59.325Z,1004.43
2019-04-22T00:25:40.880Z,1004.4
2019-04-22T00:26:15.958Z,1004.41
2019-04-22T00:26:55.793Z,1004.39
2019-04-22T00:27:40.414Z,1004.38
2019-04-22T00:28:21.321Z,1004.37
2019-04-22T00:28:57.861Z,1004.36
2019-04-22T00:30:25.300Z,1004.37
2019-04-22T00:30:53.584Z,1004.34
2019-04-22T00:31:40.192Z,1004.35
2019-04-22T00:32:17.842Z,1004.38
2019-04-22T00:32:55.326Z,1004.34
2019-04-22T00:33:38.487Z,1004.32
2019-04-22T00:34:15.699Z,1004.34
2019-04-22T00:34:58.860Z,1004.34
2019-04-22T00:35:41.150Z,1004.32
2019-04-22T00:36:21.531Z,1004.33
2019-04-22T00:37:00.131Z,1004.32
2019-04-22T00:37:42.965Z,1004.32
2019-04-22T00:38:23.264Z,1004.32
2019-04-22T00:39:06.377Z,1004.26
2019-04-22T00:39:45.970Z,1004.28
2019-04-22T00:40:28.067Z,1004.29
2019-04-22T00:41:05.337Z,1004.28
2019-04-22T00:41:48.512Z,1004.27
2019-04-22T00:42:27.299Z,1004.26
2019-04-22T00:43:04.771Z,1004.24
2019-04-22T00:43:47.820Z,1004.27
2019-04-22T00:44:31.127Z,1004.21
2019-04-22T00:45:11.437Z,1004.21
2019-04-22T00:45:47.682Z,1004.2
2019-04-22T00:46:30.848Z,1004.18
2019-04-22T00:47:16.211Z,1004.2
2019-04-22T00:47:50.100Z,1004.16
2019-04-22T00:48:32.045Z,1004.14
2019-04-22T00:49:58.050Z,1004.14
2019-04-22T00:50:54.931Z,1004.14
2019-04-22T00:51:22.311Z,1004.09
2019-04-22T00:51:56.732Z,1004.12
2019-04-22T00:52:33.438Z,1004.06
2019-04-22T00:53:16.081Z,1004.08
2019-04-22T00:53:54.139Z,1004.08
2019-04-22T00:54:34.165Z,1004.1
2019-04-22T00:55:17.966Z,1004.08
2019-04-22T00:56:00.191Z,1004.05
2019-04-22T00:56:32.393Z,1004.09
2019-04-22T00:57:15.206Z,1004.06
2019-04-22T00:58:01.106Z,1004.08
2019-04-22T00:58:36.371Z,1004.04
2019-04-22T00:59:16.824Z,1004.04
2019-04-22T00:59:57.085Z,1004.07
2019-04-22T01:00:37.401Z,1004.01
2019-04-22T01:01:18.722Z,1004.04
2019-04-22T01:02:00.227Z,1004.03
2019-04-22T01:02:41.334Z,1004.03
2019-04-22T01:03:25.758Z,1004
2019-04-22T01:04:03.539Z,1004
2019-04-22T01:05:27.119Z,1003.95
2019-04-22T01:06:02.790Z,1003.93
2019-04-22T01:06:38.272Z,1003.94
2019-04-22T01:07:23.520Z,1003.95
2019-04-22T01:08:05.380Z,1003.92
2019-04-22T01:08:52.868Z,1003.92
2019-04-22T01:09:23.161Z,1003.93
2019-04-22T01:10:05.289Z,1003.92
2019-04-22T01:10:45.037Z,1003.93
2019-04-22T01:11:28.939Z,1003.94
2019-04-22T01:12:06.847Z,1003.92
2019-04-22T01:12:43.824Z,1003.93
2019-04-22T01:13:24.567Z,1003.89
2019-04-22T01:14:06.056Z,1003.96
2019-04-22T01:14:47.091Z,1003.93
2019-04-22T01:15:28.433Z,1003.91
2019-04-22T01:16:10.643Z,1003.91
2019-04-22T01:16:48.350Z,1003.89
2019-04-22T01:17:25.432Z,1003.89
2019-04-22T01:18:02.002Z,1003.87
2019-04-22T01:18:48.370Z,1003.89
2019-04-22T01:19:29.389Z,1003.87
2019-04-22T01:20:17.279Z,1003.86
2019-04-22T01:21:35.036Z,1003.85
2019-04-22T01:22:12.808Z,1003.85
2019-04-22T01:22:51.729Z,1003.83
2019-04-22T01:23:27.687Z,1003.83
2019-04-22T01:24:08.556Z,1003.84
2019-04-22T01:24:49.966Z,1003.81
2019-04-22T01:25:29.281Z,1003.84
2019-04-22T01:26:09.289Z,1003.83
2019-04-22T01:26:48.875Z,1003.84
2019-04-22T01:27:26.140Z,1003.83
2019-04-22T01:28:06.203Z,1003.81
2019-04-22T01:28:45.769Z,1003.8
2019-04-22T01:29:26.067Z,1003.78
2019-04-22T01:30:03.554Z,1003.74
2019-04-22T01:30:40.447Z,1003.75
2019-04-22T01:31:19.478Z,1003.75
2019-04-22T01:31:54.468Z,1003.77
2019-04-22T01:32:39.821Z,1003.78
2019-04-22T01:33:21.469Z,1003.75
2019-04-22T01:34:09.834Z,1003.74
2019-04-22T01:34:49.815Z,1003.74
2019-04-22T01:35:28.519Z,1003.75
2019-04-22T01:36:13.518Z,1003.68
2019-04-22T01:36:57.262Z,1003.7
2019-04-22T01:37:34.194Z,1003.71
2019-04-22T01:38:13.034Z,1003.69
2019-04-22T01:39:01.812Z,1003.71
2019-04-22T01:39:43.352Z,1003.69
2019-04-22T01:40:23.632Z,1003.74
2019-04-22T01:41:06.889Z,1003.71
2019-04-22T01:42:15.583Z,1003.74
2019-04-22T01:42:24.240Z,1003.76
2019-04-22T01:43:16.325Z,1003.81
2019-04-22T01:43:58.566Z,1003.77
2019-04-22T01:44:32.617Z,1003.8
2019-04-22T01:45:52.821Z,1003.77
2019-04-22T01:46:43.460Z,1003.78
2019-04-22T01:47:24.430Z,1003.75
2019-04-22T01:48:02.128Z,1003.75
2019-04-22T01:48:46.442Z,1003.76
2019-04-22T01:49:21.026Z,1003.69
2019-04-22T01:50:05.979Z,1003.74
2019-04-22T01:50:42.633Z,1003.72
2019-04-22T01:51:28.100Z,1003.7
2019-04-22T01:52:04.206Z,1003.68
2019-04-22T01:52:45.979Z,1003.67
2019-04-22T01:53:26.916Z,1003.72
2019-04-22T01:54:11.949Z,1003.7
2019-04-22T01:54:46.493Z,1003.69
2019-04-22T01:56:05.195Z,1003.7
2019-04-22T01:56:46.529Z,1003.67
2019-04-22T01:57:22.112Z,1003.67
2019-04-22T01:58:05.498Z,1003.66
2019-04-22T01:58:37.923Z,1003.67
2019-04-22T01:59:19.572Z,1003.7
2019-04-22T02:00:00.084Z,1003.66
2019-04-22T02:00:53.094Z,1003.67
2019-04-22T02:01:30.164Z,1003.67
2019-04-22T02:02:09.059Z,1003.64
2019-04-22T02:02:48.549Z,1003.61
2019-04-22T02:03:33.018Z,1003.61
2019-04-22T02:04:17.067Z,1003.65
2019-04-22T02:04:51.210Z,1003.66
2019-04-22T02:05:28.495Z,1003.4
2019-04-22T02:06:13.433Z,1003.66
2019-04-22T02:06:55.468Z,1003.64
2019-04-22T02:07:33.610Z,1003.69
2019-04-22T02:08:23.215Z,1003.64
2019-04-22T02:09:00.356Z,1003.63
2019-04-22T02:09:37.614Z,1003.62
2019-04-22T02:10:18.579Z,1003.58
2019-04-22T02:10:54.264Z,1003.58
2019-04-22T02:11:45.303Z,1003.62
2019-04-22T02:12:19.223Z,1003.61
2019-04-22T02:12:59.806Z,1003.58
2019-04-22T02:13:42.605Z,1003.63
2019-04-22T02:14:19.099Z,1003.59
2019-04-22T02:14:57.072Z,1003.6
2019-04-22T02:15:37.791Z,1003.56
2019-04-22T02:16:19.540Z,1003.53
2019-04-22T02:17:01.129Z,1003.55
2019-04-22T02:18:22.776Z,1003.51
2019-04-22T02:19:00.657Z,1003.54
2019-04-22T02:19:45.381Z,1003.56
2019-04-22T02:20:24.806Z,1003.51
2019-04-22T02:21:01.167Z,1003.51
2019-04-22T02:21:42.160Z,1003.49
2019-04-22T02:22:28.581Z,1003.49
2019-04-22T02:23:30.044Z,1003.47
2019-04-22T02:24:25.911Z,1003.46
2019-04-22T02:25:08.160Z,1003.47
2019-04-22T02:25:49.280Z,1003.48
2019-04-22T02:26:31.106Z,1003.46
2019-04-22T02:27:10.327Z,1003.48
2019-04-22T02:27:45.399Z,1003.46
2019-04-22T02:29:06.260Z,1003.44
2019-04-22T02:29:47.159Z,1003.41
2019-04-22T02:30:33.074Z,1003.45
2019-04-22T02:31:58.426Z,1003.43
2019-04-22T02:32:48.052Z,1003.44
2019-04-22T02:34:08.608Z,1003.46
2019-04-22T02:34:39.436Z,1003.43
2019-04-22T02:35:23.158Z,1003.41
2019-04-22T02:36:33.771Z,1003.42
2019-04-22T02:37:18.440Z,1003.39
2019-04-22T02:39:17.087Z,1003.34
2019-04-22T02:40:03.267Z,1003.37
2019-04-22T02:40:55.763Z,1003.34
2019-04-22T02:42:02.245Z,1003.36
2019-04-22T02:42:31.581Z,1003.33
2019-04-22T02:43:33.512Z,1003.33
2019-04-22T02:44:41.772Z,1003.32
2019-04-22T02:45:25.295Z,1003.28
2019-04-22T02:47:33.304Z,1003.26
2019-04-22T02:48:09.615Z,1003.26
2019-04-22T02:50:53.898Z,1003.25
2019-04-22T02:52:09.131Z,1003.24
2019-04-22T02:52:42.570Z,1003.2
2019-04-22T02:54:00.330Z,1003.19
2019-04-22T02:54:54.350Z,1003.17
2019-04-22T02:55:31.731Z,1003.14
2019-04-22T02:56:22.532Z,1003.16
2019-04-22T02:56:43.575Z,1003.14
2019-04-22T02:57:34.713Z,1003.13
2019-04-22T02:58:12.289Z,1003.14
2019-04-22T02:59:01.905Z,1003.15
2019-04-22T02:59:30.683Z,1003.15
2019-04-22T03:00:21.238Z,1003.12
2019-04-22T03:01:04.863Z,1003.1
2019-04-22T03:01:35.915Z,1003.1
2019-04-22T03:02:18.714Z,1003.1
2019-04-22T03:03:08.336Z,1003.11
2019-04-22T03:03:50.289Z,1003.11
2019-04-22T03:04:27.953Z,1003.11
2019-04-22T03:05:44.888Z,1003.05
2019-04-22T03:06:34.482Z,1003.03
2019-04-22T03:14:04.522Z,1002.93
2019-04-22T03:14:59.231Z,1002.94
2019-04-22T03:15:50.679Z,1002.87
2019-04-22T03:17:15.566Z,1002.92
2019-04-22T03:18:00.419Z,1002.88
2019-04-22T03:18:46.335Z,1002.89
2019-04-22T03:20:33.251Z,1002.84
2019-04-22T03:21:17.333Z,1002.85
2019-04-22T03:21:54.148Z,1002.78
2019-04-22T03:22:34.109Z,1002.77
2019-04-22T03:24:05.671Z,1002.77
2019-04-22T03:24:33.031Z,1002.77
2019-04-22T03:26:18.141Z,1002.77
2019-04-22T03:27:15.588Z,1002.74
2019-04-22T03:27:58.075Z,1002.71
2019-04-22T03:28:46.046Z,1002.73
2019-04-22T03:29:17.543Z,1002.76
2019-04-22T03:30:32.926Z,1002.72
2019-04-22T03:30:53.247Z,1002.74
2019-04-22T03:33:23.081Z,1002.7
2019-04-22T03:35:18.756Z,1002.66
2019-04-22T03:36:17.899Z,1002.67
2019-04-22T03:38:17.749Z,1002.64
2019-04-22T03:40:11.617Z,1002.64
2019-04-22T03:41:03.049Z,1002.62
2019-04-22T03:41:36.318Z,1002.63
2019-04-22T03:42:06.740Z,1002.61
2019-04-22T03:43:01.754Z,1002.6
2019-04-22T03:43:34.880Z,1002.61
2019-04-22T03:44:49.277Z,1002.57
2019-04-22T03:46:10.748Z,1002.59
2019-04-22T03:47:01.217Z,1002.57
2019-04-22T03:48:06.703Z,1002.57
2019-04-22T03:48:58.224Z,1002.58
2019-04-22T03:50:27.679Z,1002.55
2019-04-22T03:50:42.146Z,1002.56
2019-04-22T03:51:56.449Z,1002.56
2019-04-22T03:52:15.635Z,1002.55
2019-04-22T03:53:32.549Z,1002.57
2019-04-22T03:55:06.761Z,1002.55
2019-04-22T03:55:38.187Z,1002.5
2019-04-22T03:56:36.361Z,1002.53
2019-04-22T03:58:00.984Z,1002.53
2019-04-22T03:59:07.016Z,1002.52
2019-04-22T03:59:41.023Z,1002.56
2019-04-22T04:00:24.341Z,1002.54
2019-04-22T04:01:05.405Z,1002.49
2019-04-22T04:03:50.471Z,1002.47
2019-04-22T04:05:09.273Z,1002.46
2019-04-22T04:06:39.458Z,1002.45
2019-04-22T04:08:14.400Z,1002.44
2019-04-22T04:08:38.489Z,1002.44
2019-04-22T04:09:16.598Z,1002.47
2019-04-22T04:11:06.073Z,1002.43
2019-04-22T04:12:37.156Z,1002.4
2019-04-22T04:14:00.306Z,1002.43
2019-04-22T04:15:18.473Z,1002.41
2019-04-22T04:16:10.094Z,1002.39
2019-04-22T04:16:47.481Z,1002.39
2019-04-22T04:17:54.775Z,1002.41
2019-04-22T04:18:46.363Z,1002.4
2019-04-22T04:19:22.910Z,1002.37
2019-04-22T04:20:10.331Z,1002.36
2019-04-22T04:20:44.397Z,1002.34
2019-04-22T04:23:28.381Z,1002.35
2019-04-22T04:24:53.298Z,1002.39
2019-04-22T04:25:31.942Z,1002.34
2019-04-22T04:26:00.561Z,1002.36
2019-04-22T04:27:06.426Z,1002.34
2019-04-22T04:27:42.525Z,1002.26
2019-04-22T05:07:47.117Z,1002.29
2019-04-22T05:08:51.117Z,1002.32
2019-04-22T05:10:08.886Z,1002.34
2019-04-22T05:12:11.575Z,1002.33
2019-04-22T05:13:22.666Z,1002.37
2019-04-22T05:14:09.091Z,1002.34
2019-04-22T05:14:45.958Z,1002.35
2019-04-22T05:15:22.701Z,1002.36
2019-04-22T05:16:46.166Z,1002.38
2019-04-22T05:17:24.981Z,1002.39
2019-04-22T05:18:12.091Z,1002.37
2019-04-22T05:18:50.331Z,1002.39
2019-04-22T05:19:25.147Z,1002.35
2019-04-22T05:20:12.168Z,1002.36
2019-04-22T05:21:08.944Z,1002.4
2019-04-22T05:21:38.313Z,1002.38
2019-04-22T05:22:03.916Z,1002.38
2019-04-22T05:22:57.476Z,1002.38
2019-04-22T05:23:29.837Z,1002.4
2019-04-22T05:24:16.211Z,1002.36
2019-04-22T05:24:50.506Z,1002.39
2019-04-22T05:26:09.231Z,1002.39
2019-04-22T05:26:48.241Z,1002.38
2019-04-22T05:27:44.906Z,1002.35
2019-04-22T05:28:09.933Z,1002.41
2019-04-22T05:28:49.758Z,1002.41
2019-04-22T05:29:35.905Z,1002.37
2019-04-22T05:30:23.134Z,1002.42
2019-04-22T05:30:45.546Z,1002.41
2019-04-22T05:32:07.742Z,1002.39
2019-04-22T05:32:47.197Z,1002.38
2019-04-22T05:33:34.655Z,1002.38
2019-04-22T05:34:14.243Z,1002.36
2019-04-22T05:34:47.779Z,1002.38
2019-04-22T05:35:30.674Z,1002.43
2019-04-22T05:36:12.470Z,1002.43
2019-04-22T05:36:52.315Z,1002.46
2019-04-22T05:37:32.634Z,1002.42
2019-04-22T05:38:16.930Z,1002.39
2019-04-22T05:38:59.669Z,1002.42
2019-04-22T05:39:35.489Z,1002.4
2019-04-22T05:41:02.091Z,1002.4
2019-04-22T05:41:41.236Z,1002.36
2019-04-22T05:42:17.512Z,1002.39
2019-04-22T05:42:59.965Z,1002.37
2019-04-22T05:44:02.628Z,1002.35
2019-04-22T05:44:40.716Z,1002.34
2019-04-22T05:45:57.440Z,1002.33
2019-04-22T05:46:39.052Z,1002.36
2019-04-22T05:47:25.250Z,1002.35
2019-04-22T05:48:00.763Z,1002.33
2019-04-22T05:48:53.437Z,1002.35
2019-04-22T05:49:41.169Z,1002.34
2019-04-22T05:50:07.414Z,1002.35
2019-04-22T05:50:50.239Z,1002.3
2019-04-22T05:51:30.930Z,1002.31
2019-04-22T05:52:14.197Z,1002.31
2019-04-22T05:52:59.991Z,1002.28
2019-04-22T05:53:39.869Z,1002.26
2019-04-22T05:54:32.549Z,1002.26
2019-04-22T05:55:13.727Z,1002.33
2019-04-22T05:56:20.535Z,1002.28
2019-04-22T05:56:39.179Z,1002.34
2019-04-22T06:02:39.120Z,1002.32
2019-04-22T06:03:01.402Z,1002.31
2019-04-22T06:03:50.596Z,1002.3
2019-04-22T06:04:44.756Z,1002.3
2019-04-22T06:05:09.578Z,1002.33
2019-04-22T06:05:46.749Z,1002.38
2019-04-22T06:06:28.595Z,1002.38
2019-04-22T06:07:06.097Z,1002.36
2019-04-22T06:07:52.019Z,1002.37
2019-04-22T06:08:28.947Z,1002.38
2019-04-22T06:09:14.479Z,1002.35
2019-04-22T06:09:59.321Z,1002.38
2019-04-22T06:10:38.821Z,1002.39
2019-04-22T06:11:22.187Z,1002.4
2019-04-22T06:11:54.192Z,1002.42
2019-04-22T06:12:31.287Z,1002.38
2019-04-22T06:13:09.741Z,1002.4
2019-04-22T06:13:55.849Z,1002.39
2019-04-22T06:14:36.576Z,1002.38
2019-04-22T06:15:18.135Z,1002.4
2019-04-22T06:15:56.749Z,1002.37
2019-04-22T06:16:43.882Z,1002.36
2019-04-22T06:17:23.775Z,1002.37
2019-04-22T06:18:15.798Z,1002.35
2019-04-22T06:18:46.672Z,1002.37
2019-04-22T06:19:24.270Z,1002.34
2019-04-22T06:20:08.640Z,1002.36
2019-04-22T06:20:52.868Z,1002.34
2019-04-22T06:21:32.530Z,1002.32
2019-04-22T06:28:47.988Z,1002.28
2019-04-22T06:29:24.900Z,1002.31
2019-04-22T06:30:13.765Z,1002.31
2019-04-22T06:30:55.618Z,1002.3
2019-04-22T06:31:42.064Z,1002.29
2019-04-22T06:33:00.617Z,1002.29
2019-04-22T06:33:47.598Z,1002.27
2019-04-22T06:34:28.558Z,1002.31
2019-04-22T06:35:09.030Z,1002.3
2019-04-22T06:35:48.452Z,1002.26
2019-04-22T06:36:28.860Z,1002.29
2019-04-22T06:37:12.688Z,1002.25
2019-04-22T06:38:08.141Z,1002.29
2019-04-22T06:48:29.358Z,1002.31
2019-04-22T06:49:15.950Z,1002.35
2019-04-22T06:49:54.341Z,1002.31
2019-04-22T06:50:35.637Z,1002.28
2019-04-22T06:51:19.373Z,1002.33
2019-04-22T06:52:07.348Z,1002.31
2019-04-22T06:52:51.358Z,1002.26
2019-04-22T06:53:29.542Z,1002.25
2019-04-22T06:54:07.100Z,1002.28
2019-04-22T06:54:48.573Z,1002.28
2019-04-22T06:56:10.840Z,1002.27
2019-04-22T06:56:48.264Z,1002.25
2019-04-22T06:57:30.100Z,1002.27
2019-04-22T06:58:14.891Z,1002.22
2019-04-22T06:58:52.133Z,1002.25
2019-04-22T06:59:36.090Z,1002.26
2019-04-22T07:00:17.042Z,1002.25
2019-04-22T07:00:51.829Z,1002.22
2019-04-22T07:01:35.346Z,1002.23
2019-04-22T07:02:23.661Z,1002.25
2019-04-22T07:03:47.441Z,1002.3
2019-04-22T07:04:21.114Z,1002.25
2019-04-22T07:05:07.284Z,1002.24
2019-04-22T07:05:46.193Z,1002.22
2019-04-22T07:07:06.317Z,1002.23
2019-04-22T07:07:53.177Z,1002.25
2019-04-22T07:10:22.040Z,1002.17
2019-04-22T07:11:10.756Z,1002.24
2019-04-22T07:11:57.367Z,1002.23
2019-04-22T07:12:41.290Z,1002.25
2019-04-22T07:13:27.052Z,1002.21
2019-04-22T07:14:48.281Z,1002.27
2019-04-22T07:15:41.863Z,1002.2
2019-04-22T07:16:03.446Z,1002.2
2019-04-22T07:17:20.423Z,1002.22
2019-04-22T07:18:10.957Z,1002.21
2019-04-22T07:18:47.825Z,1002.19
2019-04-22T07:19:33.146Z,1002.22
2019-04-22T07:20:09.981Z,1002.17
2019-04-22T07:20:56.180Z,1002.21
2019-04-22T07:22:16.100Z,1002.23
2019-04-22T07:22:51.026Z,1002.19
2019-04-22T07:23:38.462Z,1002.2
2019-04-22T07:24:34.108Z,1002.25
2019-04-22T07:24:58.110Z,1002.21
2019-04-22T07:25:40.454Z,1002.21
2019-04-22T07:26:19.831Z,1002.21
2019-04-22T07:27:04.467Z,1002.16
2019-04-22T07:27:40.288Z,1002.21
2019-04-22T07:28:19.797Z,1002.16
2019-04-22T07:29:01.072Z,1002.17
2019-04-22T07:29:46.281Z,1002.18
2019-04-22T07:30:26.052Z,1002.22
2019-04-22T07:31:03.686Z,1002.17
2019-04-22T07:31:49.174Z,1002.16
2019-04-22T07:33:27.575Z,1002.12
2019-04-22T07:33:51.036Z,1001.96
2019-04-22T07:34:32.923Z,1002.14
2019-04-22T07:35:12.736Z,1002.19
2019-04-22T07:36:05.982Z,1002.14
2019-04-22T07:37:53.676Z,1002.13
2019-04-22T07:38:29.440Z,1002.09
2019-04-22T07:39:15.384Z,1002.13
2019-04-22T07:39:55.974Z,1002.11
2019-04-22T07:40:43.144Z,1002.1
2019-04-22T07:41:19.576Z,1002.1
2019-04-22T07:41:55.763Z,1002.07
2019-04-22T07:42:41.573Z,1002.08
2019-04-22T07:43:27.766Z,1002.07
2019-04-22T07:44:12.934Z,1002.09
2019-04-22T07:44:44.545Z,1002.03
2019-04-22T07:45:24.935Z,1002
2019-04-22T07:46:18.126Z,1002.04
2019-04-22T07:46:48.145Z,1002.06
2019-04-22T07:47:31.002Z,1001.95
2019-04-22T07:48:09.323Z,1001.93
2019-04-22T07:48:51.468Z,1002.01
2019-04-22T07:49:32.080Z,1001.93
2019-04-22T07:50:12.632Z,1002.01
2019-04-22T07:51:26.379Z,1001.97
2019-04-22T07:52:09.376Z,1001.97
2019-04-22T07:52:44.767Z,1002.03
2019-04-22T07:53:27.601Z,1002.01
2019-04-22T07:54:06.002Z,1001.91
2019-04-22T07:54:52.298Z,1001.95
2019-04-22T07:55:26.761Z,1001.98
2019-04-22T07:56:11.623Z,1001.94
2019-04-22T07:56:50.352Z,1002
2019-04-22T07:57:32.204Z,1001.95
2019-04-22T07:58:11.571Z,1001.92
2019-04-22T07:58:48.162Z,1001.88
2019-04-22T07:59:33.730Z,1001.91
2019-04-22T08:00:15.542Z,1001.92
2019-04-22T08:00:54.845Z,1001.95
2019-04-22T08:01:30.371Z,1001.87
2019-04-22T08:02:14.183Z,1001.87
2019-04-22T08:02:58.900Z,1001.89
2019-04-22T08:03:43.733Z,1001.92
2019-04-22T08:04:48.715Z,1001.82
2019-04-22T08:05:04.955Z,1001.79
2019-04-22T08:07:03.142Z,1001.77
2019-04-22T08:07:41.950Z,1001.78
2019-04-22T08:08:35.388Z,1001.77
2019-04-22T08:09:05.831Z,1001.81
2019-04-22T08:09:50.631Z,1001.76
2019-04-22T08:10:36.644Z,1001.71
2019-04-22T08:11:21.357Z,1001.87
2019-04-22T08:11:49.571Z,1001.84
2019-04-22T08:12:33.056Z,1001.73
2019-04-22T08:13:10.955Z,1001.73
2019-04-22T08:13:46.485Z,1001.7
2019-04-22T08:14:34.269Z,1001.8
2019-04-22T08:15:12.309Z,1001.67
2019-04-22T08:15:53.352Z,1001.75
2019-04-22T08:16:28.256Z,1001.69
2019-04-22T08:17:38.308Z,1001.68
2019-04-22T08:18:33.901Z,1001.7
2019-04-22T08:19:15.322Z,1001.64
2019-04-22T08:19:55.445Z,1001.69
2019-04-22T08:20:33.229Z,1001.6
2019-04-22T08:21:08.936Z,1001.68
2019-04-22T08:21:56.112Z,1001.68
2019-04-22T08:22:33.750Z,1001.62
2019-04-22T08:23:15.986Z,1001.65
2019-04-22T08:23:56.356Z,1001.61
2019-04-22T08:24:41.637Z,1001.57
2019-04-22T08:25:16.267Z,1001.59
2019-04-22T08:25:54.103Z,1001.69
2019-04-22T08:26:37.777Z,1001.57
2019-04-22T08:27:14.773Z,1001.6
2019-04-22T08:28:02.845Z,1001.63
2019-04-22T08:28:45.357Z,1001.62
2019-04-22T08:29:25.009Z,1001.6
2019-04-22T08:30:06.249Z,1001.61
2019-04-22T08:31:28.090Z,1001.57
2019-04-22T08:31:58.969Z,1001.55
2019-04-22T08:33:28.691Z,1001.59
2019-04-22T08:34:06.149Z,1001.57
2019-04-22T08:34:41.718Z,1001.53
2019-04-22T08:35:39.224Z,1001.49
2019-04-22T08:37:11.666Z,1001.58
2019-04-22T08:38:11.136Z,1001.5
2019-04-22T08:39:30.801Z,1001.53
2019-04-22T08:40:19.810Z,1001.53
2019-04-22T08:40:55.344Z,1001.5
2019-04-22T08:41:39.692Z,1001.5
2019-04-22T08:42:17.580Z,1001.41
2019-04-22T08:43:45.666Z,1001.49
2019-04-22T08:44:16.603Z,1001.53
2019-04-22T08:45:43.910Z,1001.5
2019-04-22T08:47:41.163Z,1001.5
2019-04-22T08:48:22.556Z,1001.45
2019-04-22T08:48:58.869Z,1001.53
2019-04-22T08:49:50.037Z,1001.4
2019-04-22T08:50:19.567Z,1001.41
2019-04-22T08:51:00.180Z,1001.42
2019-04-22T08:51:41.882Z,1001.35
2019-04-22T08:52:27.096Z,1001.43
2019-04-22T08:53:07.684Z,1001.46
2019-04-22T08:53:55.850Z,1001.38
2019-04-22T08:54:29.591Z,1001.39
2019-04-22T08:55:10.878Z,1001.35
2019-04-22T08:55:55.664Z,1001.38
2019-04-22T08:56:31.977Z,1001.41
2019-04-22T08:57:10.162Z,1001.33
2019-04-22T08:58:08.216Z,1001.36
2019-04-22T08:58:31.006Z,1001.46
2019-04-22T08:59:54.219Z,1001.38
2019-04-22T09:00:36.760Z,1001.4
2019-04-22T09:01:17.033Z,1001.43
2019-04-22T09:01:56.602Z,1001.51
2019-04-22T09:02:38.414Z,1001.35
2019-04-22T09:03:15.709Z,1001.44
2019-04-22T09:03:57.727Z,1001.41
2019-04-22T09:04:35.675Z,1001.31
2019-04-22T09:05:36.645Z,1001.31
2019-04-22T09:06:04.339Z,1001.3
2019-04-22T09:08:07.184Z,1001.32
2019-04-22T09:08:48.606Z,1001.36
2019-04-22T09:09:26.310Z,1001.32
2019-04-22T09:10:01.287Z,1001.3
2019-04-22T09:10:43.130Z,1001.27
2019-04-22T09:11:26.385Z,1001.27
2019-04-22T09:12:07.507Z,1001.25
2019-04-22T09:12:56.646Z,1001.2
2019-04-22T09:13:29.642Z,1001.24
2019-04-22T09:14:15.463Z,1001.25
2019-04-22T09:15:02.268Z,1001.11
2019-04-22T09:15:33.902Z,1001.14
2019-04-22T09:16:18.954Z,1001.08
2019-04-22T09:16:48.052Z,1001.08
2019-04-22T09:17:34.221Z,1001.08
2019-04-22T09:18:14.080Z,1001.07
2019-04-22T09:19:28.249Z,1001.06
2019-04-22T09:20:32.312Z,1001.13
2019-04-22T09:21:06.577Z,1001.12
2019-04-22T09:21:37.631Z,1001.09
2019-04-22T09:22:16.696Z,1001.1
2019-04-22T09:23:02.556Z,1001.05
2019-04-22T09:23:43.944Z,1001.07
2019-04-22T09:24:22.920Z,1001.05
2019-04-22T09:24:55.886Z,1001.06
2019-04-22T09:25:39.022Z,1001.06
2019-04-22T09:26:28.575Z,1001.02
2019-04-22T09:27:09.941Z,1001.02
2019-04-22T09:27:49.386Z,1001
2019-04-22T09:28:30.364Z,1000.96
2019-04-22T09:29:12.238Z,1000.99
2019-04-22T09:30:33.953Z,1000.9
2019-04-22T09:31:10.925Z,1000.98
2019-04-22T09:31:53.161Z,1000.89
2019-04-22T09:32:32.560Z,1000.86
2019-04-22T09:33:13.836Z,1000.91
2019-04-22T09:33:47.464Z,1000.86
2019-04-22T09:34:33.547Z,1000.93
2019-04-22T09:35:09.298Z,1000.89
2019-04-22T09:35:58.523Z,1000.9
2019-04-22T09:36:33.558Z,1000.87
2019-04-22T09:37:19.663Z,1000.87
2019-04-22T09:38:37.428Z,1000.83
2019-04-22T09:39:20.901Z,1000.83
2019-04-22T09:40:04.346Z,1000.81
2019-04-22T09:40:34.060Z,1000.81
2019-04-22T09:41:18.346Z,1000.76
2019-04-22T09:41:56.909Z,1000.79
2019-04-22T09:43:23.898Z,1000.82
2019-04-22T09:44:40.064Z,1000.74
2019-04-22T09:45:14.954Z,1000.75
2019-04-22T09:45:57.213Z,1000.7
2019-04-22T09:46:40.840Z,1000.72
2019-04-22T09:47:24.751Z,1000.67
2019-04-22T09:48:08.104Z,1000.65
2019-04-22T09:48:42.986Z,1000.63
2019-04-22T09:49:26.076Z,1000.71
2019-04-22T09:50:07.863Z,1000.65
2019-04-22T09:50:47.556Z,1000.63
2019-04-22T09:51:30.554Z,1000.67
2019-04-22T09:52:09.999Z,1000.6
2019-04-22T09:53:28.411Z,1000.63
2019-04-22T09:54:13.750Z,1000.58
2019-04-22T09:55:28.038Z,1000.68
2019-04-22T09:56:09.464Z,1000.54
2019-04-22T09:56:48.890Z,1000.52
2019-04-22T09:57:31.006Z,1000.55
2019-04-22T09:58:15.819Z,1000.48
2019-04-22T09:58:54.967Z,1000.5
2019-04-22T09:59:34.520Z,1000.48
2019-04-22T10:00:13.634Z,1000.46
2019-04-22T10:01:02.459Z,1000.41
2019-04-22T10:02:05.503Z,1000.39
2019-04-22T10:02:24.826Z,1000.4
2019-04-22T10:03:00.252Z,1000.42
2019-04-22T10:03:36.133Z,1000.4
2019-04-22T10:04:09.806Z,1000.38
2019-04-22T10:04:59.883Z,1000.35
2019-04-22T10:05:40.507Z,1000.35
2019-04-22T10:06:22.197Z,1000.33
2019-04-22T10:06:53.839Z,1000.33
2019-04-22T10:07:38.801Z,1000.33
2019-04-22T10:08:23.675Z,1000.34
2019-04-22T10:11:03.820Z,1000.26
2019-04-22T10:12:24.586Z,1000.26
2019-04-22T10:13:02.525Z,1000.26
2019-04-22T10:13:47.368Z,1000.25
2019-04-22T10:14:24.653Z,1000.23
2019-04-22T10:15:04.838Z,1000.19
2019-04-22T10:15:46.667Z,1000.19
2019-04-22T10:16:30.713Z,1000.21
2019-04-22T10:17:06.169Z,1000.26
2019-04-22T10:17:49.307Z,1000.23
2019-04-22T10:18:31.726Z,1000.19
2019-04-22T10:19:10.891Z,1000.17
2019-04-22T10:19:46.229Z,1000.11
2019-04-22T10:20:30.698Z,1000.07
2019-04-22T10:21:14.269Z,1000.08
2019-04-22T10:22:04.323Z,1000.05
2019-04-22T10:22:31.928Z,1000.04
2019-04-22T10:23:12.480Z,1000.03
2019-04-22T10:23:50.254Z,1000.02
2019-04-22T10:24:31.769Z,1000.03
2019-04-22T10:25:52.144Z,999.99
2019-04-22T10:27:12.760Z,999.94
2019-04-22T10:27:55.036Z,1000.02
2019-04-22T10:28:38.342Z,1000.02
2019-04-22T10:29:16.833Z,1000.06
2019-04-22T11:10:01.021Z,999.13
2019-04-22T11:10:50.475Z,999.05
2019-04-22T11:11:29.983Z,999.05
2019-04-22T11:12:04.286Z,999.09
2019-04-22T11:12:37.945Z,999.17
2019-04-22T11:13:17.925Z,999.17
2019-04-22T11:13:58.079Z,999.1
2019-04-22T11:14:41.094Z,999.17
2019-04-22T11:15:18.743Z,999.17
2019-04-22T11:16:00.369Z,999.05
2019-04-22T11:16:39.644Z,999.13
2019-04-22T11:17:19.895Z,999.17
2019-04-22T11:18:01.795Z,998.82
2019-04-22T11:18:41.274Z,999.01
2019-04-22T11:19:21.432Z,998.9
2019-04-22T11:20:01.981Z,998.97
2019-04-22T11:20:44.060Z,999.07